createdAt,value
2019-03-01T00:03:07.120Z,95.43
2019-03-01T00:08:14.549Z,107.07
2019-03-01T00:13:54.454Z,122.40
2019-03-01T00:19:34.234Z,115.27
2019-03-01T00:25:12.538Z,123.53
2019-03-01T00:30:45.266Z,135.27
2019-03-01T00:36:30.729Z,123.43
2019-03-01T00:42:00.242Z,125.03
2019-03-01T00:47:05.455Z,139.60
2019-03-01T00:52:10.452Z,146.90
2019-03-01T00:57:12.786Z,162.83
2019-03-01T01:02:14.839Z,180.53
2019-03-01T01:07:17.639Z,169.50
2019-03-01T01:12:19.688Z,182.20
2019-03-01T01:17:23.767Z,192.23
2019-03-01T01:22:25.857Z,181.40
2019-03-01T01:27:32.988Z,195.07
2019-03-01T01:32:40.480Z,208.33
2019-03-01T01:37:45.301Z,219.83
2019-03-01T01:42:47.383Z,238.50
2019-03-01T01:47:49.483Z,271.80
2019-03-01T01:52:51.544Z,293.67
2019-03-01T01:57:55.917Z,272.10
2019-03-01T02:02:59.296Z,293.70
2019-03-01T02:08:06.054Z,275.87
2019-03-01T02:13:08.229Z,295.03
2019-03-01T02:18:10.273Z,301.50
2019-03-01T02:23:15.184Z,320.67
2019-03-01T02:28:19.529Z,308.10
2019-03-01T02:33:26.773Z,247.37
2019-03-01T02:38:33.676Z,218.20
2019-03-01T02:43:35.934Z,173.00
2019-03-01T02:48:38.006Z,184.93
2019-03-01T02:53:40.243Z,185.03
2019-03-01T02:58:43.369Z,193.57
2019-03-01T03:03:46.351Z,201.40
2019-03-01T03:08:48.444Z,231.67
2019-03-01T03:13:51.733Z,241.47
2019-03-01T03:18:55.742Z,275.87
2019-03-01T03:23:59.176Z,302.03
2019-03-01T03:29:01.188Z,404.43
2019-03-01T03:34:13.502Z,358.77
2019-03-01T03:39:18.328Z,322.53
2019-03-01T03:44:20.654Z,341.90
2019-03-01T03:49:22.716Z,287.80
2019-03-01T03:54:24.874Z,343.53
2019-03-01T03:59:26.897Z,395.73
2019-03-01T04:04:29.148Z,435.80
2019-03-01T04:09:31.260Z,435.13
2019-03-01T04:14:33.425Z,372.70
2019-03-01T04:19:38.590Z,364.47
2019-03-01T04:24:42.526Z,298.73
2019-03-01T04:29:44.569Z,392.07
2019-03-01T04:34:48.067Z,404.20
2019-03-01T04:39:51.609Z,321.50
2019-03-01T04:44:57.674Z,309.73
2019-03-01T04:49:59.702Z,338.57
2019-03-01T04:55:04.062Z,330.50
2019-03-01T05:00:09.099Z,396.50
2019-03-01T05:05:14.654Z,350.17
2019-03-01T05:10:16.910Z,403.67
2019-03-01T05:15:22.697Z,389.53
2019-03-01T05:20:24.740Z,420.60
2019-03-01T05:25:29.495Z,435.63
2019-03-01T05:30:36.732Z,448.73
2019-03-01T05:35:38.926Z,515.90
2019-03-01T05:40:40.986Z,439.33
2019-03-01T05:45:48.525Z,529.10
2019-03-01T05:50:56.135Z,535.77
2019-03-01T05:55:58.200Z,464.47
2019-03-01T06:01:09.753Z,522.17
2019-03-01T06:06:15.382Z,505.83
2019-03-01T06:11:38.115Z,721.67
2019-03-01T06:17:07.927Z,534.47
2019-03-01T06:23:06.904Z,419.17
2019-03-01T06:28:50.641Z,467.00
2019-03-01T06:34:29.123Z,545.80
2019-03-01T06:40:38.061Z,469.73
2019-03-01T06:46:20.271Z,524.07
2019-03-01T06:51:33.670Z,520.10
2019-03-01T06:56:35.833Z,547.30
2019-03-01T07:01:43.903Z,222.93
2019-03-01T07:06:48.972Z,150.43
2019-03-01T07:11:53.252Z,111.00
2019-03-01T07:16:57.311Z,88.37
2019-03-01T07:22:00.920Z,75.53
2019-03-01T07:27:03.056Z,69.37
2019-03-01T07:32:05.160Z,62.67
2019-03-01T07:37:07.304Z,56.50
2019-03-01T07:42:10.589Z,45.67
2019-03-01T07:47:15.403Z,44.47
2019-03-01T07:52:17.499Z,41.63
2019-03-01T07:57:22.714Z,41.77
2019-03-01T08:02:24.862Z,35.10
2019-03-01T08:07:29.939Z,37.20
2019-03-01T08:12:33.076Z,54.77
2019-03-01T08:17:37.278Z,43.50
2019-03-01T08:22:48.082Z,45.53
2019-03-01T08:27:46.343Z,44.57
2019-03-01T08:32:49.013Z,44.07
2019-03-01T08:37:53.500Z,42.97
2019-03-01T08:42:55.389Z,50.47
2019-03-01T08:47:58.885Z,33.50
2019-03-01T08:53:06.224Z,28.73
2019-03-01T08:58:08.304Z,26.07
2019-03-01T09:03:23.310Z,39.43
2019-03-01T09:08:26.479Z,26.47
2019-03-01T09:13:28.983Z,24.97
2019-03-01T09:18:31.111Z,24.27
2019-03-01T09:23:36.276Z,27.80
2019-03-01T09:28:39.685Z,27.73
2019-03-01T09:33:42.336Z,34.80
2019-03-01T09:38:45.908Z,27.07
2019-03-01T09:43:48.002Z,30.07
2019-03-01T09:48:50.526Z,27.43
2019-03-01T09:53:52.651Z,31.57
2019-03-01T09:58:57.342Z,33.47
2019-03-01T10:04:02.427Z,43.00
2019-03-01T10:09:09.898Z,28.63
2019-03-01T10:14:12.151Z,27.87
2019-03-01T10:19:17.086Z,24.93
2019-03-01T10:24:19.293Z,27.13
2019-03-01T10:29:25.415Z,31.80
2019-03-01T10:34:27.804Z,34.57
2019-03-01T10:39:33.008Z,28.47
2019-03-01T10:44:35.326Z,23.07
2019-03-01T10:49:40.135Z,24.53
2019-03-01T10:54:42.155Z,27.73
2019-03-01T10:59:47.375Z,27.80
2019-03-01T11:04:51.739Z,23.50
2019-03-01T11:09:54.316Z,18.13
2019-03-01T11:14:59.610Z,13.87
2019-03-01T11:20:01.625Z,14.43
2019-03-01T11:25:06.458Z,9.33
2019-03-01T11:30:12.366Z,13.30
2019-03-01T11:35:15.861Z,11.93
2019-03-01T11:40:23.625Z,10.70
2019-03-01T11:45:28.069Z,8.20
2019-03-01T11:50:31.598Z,7.63
2019-03-01T11:55:36.808Z,13.13
2019-03-01T12:00:41.196Z,16.17
2019-03-01T12:05:43.574Z,11.97
2019-03-01T12:10:45.867Z,13.37
2019-03-01T12:15:51.276Z,14.30
2019-03-01T12:20:53.367Z,14.67
2019-03-01T12:25:55.409Z,14.23
2019-03-01T12:31:04.878Z,13.37
2019-03-01T12:36:07.057Z,13.63
2019-03-01T12:41:09.129Z,19.00
2019-03-01T12:46:12.641Z,7.67
2019-03-01T12:51:14.841Z,20.17
2019-03-01T12:56:17.235Z,15.77
2019-03-01T13:01:23.998Z,29.43
2019-03-01T13:06:27.389Z,12.50
2019-03-01T13:11:29.531Z,10.57
2019-03-01T13:16:33.977Z,15.60
2019-03-01T13:21:36.136Z,14.60
2019-03-01T13:26:40.815Z,9.43
2019-03-01T13:31:47.112Z,9.10
2019-03-01T13:36:48.355Z,5.73
2019-03-01T13:41:50.460Z,12.10
2019-03-01T13:46:55.346Z,8.03
2019-03-01T13:51:57.463Z,12.37
2019-03-01T13:57:03.924Z,9.15
2019-03-01T14:02:08.514Z,7.93
2019-03-01T14:07:10.716Z,4.90
2019-03-01T14:12:12.969Z,5.93
2019-03-01T14:17:15.281Z,11.00
2019-03-01T14:22:18.488Z,17.03
2019-03-01T14:27:20.775Z,10.30
2019-03-01T14:32:24.606Z,9.67
2019-03-01T14:37:27.079Z,17.70
2019-03-01T14:42:29.149Z,12.00
2019-03-01T14:47:32.728Z,18.77
2019-03-01T14:52:35.497Z,13.03
2019-03-01T14:57:43.068Z,19.77
2019-03-01T15:03:23.687Z,12.53
2019-03-01T15:08:26.061Z,17.53
2019-03-01T15:13:34.838Z,13.70
2019-03-01T15:18:36.102Z,20.87
2019-03-01T15:23:38.142Z,9.77
2019-03-01T15:28:44.681Z,12.30
2019-03-01T15:33:51.222Z,10.47
2019-03-01T15:38:55.568Z,7.53
2019-03-01T15:43:57.756Z,10.70
2019-03-01T15:48:59.821Z,8.60
2019-03-01T15:54:02.036Z,8.80
2019-03-01T15:59:06.007Z,3.90
2019-03-01T16:04:10.680Z,6.50
2019-03-01T16:09:21.740Z,5.50
2019-03-01T16:14:24.311Z,6.33
2019-03-01T16:19:26.866Z,6.83
2019-03-01T16:24:28.923Z,9.87
2019-03-01T16:29:33.622Z,7.33
2019-03-01T16:34:37.787Z,7.23
2019-03-01T16:39:41.475Z,6.77
2019-03-01T16:44:44.775Z,10.33
2019-03-01T16:49:47.566Z,6.77
2019-03-01T16:54:52.516Z,8.57
2019-03-01T16:59:56.046Z,9.67
2019-03-01T17:05:03.938Z,7.83
2019-03-01T17:10:15.070Z,10.77
2019-03-01T17:15:25.758Z,12.20
2019-03-01T17:20:28.219Z,10.00
2019-03-01T17:25:31.241Z,7.57
2019-03-01T17:30:36.491Z,12.30
2019-03-01T17:35:40.983Z,10.33
2019-03-01T17:40:43.912Z,9.20
2019-03-01T17:45:46.160Z,8.03
2019-03-01T17:50:50.299Z,13.33
2019-03-01T17:55:52.441Z,11.93
2019-03-01T18:01:02.755Z,10.73
2019-03-01T18:06:03.589Z,10.10
2019-03-01T18:11:08.795Z,10.07
2019-03-01T18:16:11.814Z,10.77
2019-03-01T18:21:14.559Z,8.03
2019-03-01T18:26:19.694Z,4.53
2019-03-01T18:31:23.984Z,8.27
2019-03-01T18:36:28.185Z,11.30
2019-03-01T18:41:30.263Z,11.40
2019-03-01T18:46:33.576Z,13.13
2019-03-01T18:51:43.387Z,10.30
2019-03-01T18:56:44.814Z,11.90
2019-03-01T19:01:48.636Z,7.53
2019-03-01T19:06:52.604Z,13.03
2019-03-01T19:11:54.920Z,10.63
2019-03-01T19:16:57.070Z,8.43
2019-03-01T19:22:02.562Z,7.13
2019-03-01T19:27:04.697Z,15.13
2019-03-01T19:32:06.738Z,7.40
2019-03-01T19:37:10.228Z,8.07
2019-03-01T19:42:13.570Z,7.80
2019-03-01T19:47:15.743Z,7.83
2019-03-01T19:52:20.177Z,7.67
2019-03-01T19:57:22.802Z,9.87
2019-03-01T20:02:30.983Z,9.50
2019-03-01T20:07:35.572Z,6.58
2019-03-01T20:12:40.605Z,3.90
2019-03-01T20:17:44.615Z,3.63
2019-03-01T20:22:50.555Z,2.80
2019-03-01T20:27:53.103Z,3.43
2019-03-01T20:32:55.218Z,2.00
2019-03-01T20:38:00.175Z,3.70
2019-03-01T20:43:06.704Z,5.30
2019-03-01T20:48:11.862Z,4.53
2019-03-01T20:53:14.347Z,6.73
2019-03-01T20:58:39.565Z,12.30
2019-03-01T21:03:43.744Z,9.20
2019-03-01T21:08:46.189Z,3.77
2019-03-01T21:13:51.398Z,9.30
2019-03-01T21:18:57.481Z,10.40
2019-03-01T21:23:59.745Z,6.20
2019-03-01T21:29:04.599Z,10.83
2019-03-01T21:34:09.919Z,10.80
2019-03-01T21:39:20.626Z,5.90
2019-03-01T21:44:24.692Z,11.53
2019-03-01T21:49:32.229Z,7.10
2019-03-01T21:54:34.352Z,5.73
2019-03-01T22:04:49.883Z,10.03
2019-03-01T22:10:02.584Z,10.30
2019-03-01T22:15:08.676Z,9.97
2019-03-01T22:20:10.840Z,5.70
2019-03-01T22:25:21.955Z,4.87
2019-03-01T22:30:25.703Z,14.37
2019-03-01T22:35:27.958Z,6.67
2019-03-01T22:40:31.277Z,5.20
2019-03-01T22:45:34.395Z,9.57
2019-03-01T22:50:39.478Z,6.50
2019-03-01T22:55:40.858Z,7.33
2019-03-01T23:01:17.299Z,6.73
2019-03-01T23:06:20.995Z,7.77
2019-03-01T23:11:32.404Z,6.07
2019-03-01T23:16:32.986Z,7.63
2019-03-01T23:21:35.891Z,7.00
2019-03-01T23:26:39.063Z,8.83
2019-03-01T23:31:41.066Z,8.53
2019-03-01T23:36:44.381Z,10.63
2019-03-01T23:41:50.433Z,8.87
2019-03-01T23:46:52.535Z,10.17
2019-03-01T23:51:56.549Z,8.23
2019-03-01T23:57:01.914Z,8.53
